Allisona, Tennessee
Current Conditions -  °F | °C
As of 5:53 PM on Saturday 20 Dec 2014 (Local Time) from KBNA Reporting Station
Broken Clouds Broken Clouds  
Wind Chill:   Ceiling: 10000
Heat Index:   Visibility: 10mi
Dew Point: -2°   Wind: 7mph
Humidity: 67%   Direction: 10°N
Pressure: 30.26"   Gusts: NA
Location:  35.7808°N, 86.7221°W
Report Text: KBNA 202353Z 01006KT 10SM BKN100 04/M02 A3026 RMK AO2 SLP251 T00391017 10078 20033 53012
Loading
Personal Weather Stations






























Interactive Weather Map New forecast layout! Learn more

10-Day Weather Forecast

Advertisements
Track Severe Weather on mobile